Huron, SD (57350)

12:34 PM CST on February 10, 2016 (GMT -0600)
IEM | | Change Station
CLOSE
Current Station
Personal Weather Station
Location: Huron, SD
Elevation: 1274 ft
Nearby Weather Stations

Elev 1274 ft 44.35 °N, 98.23 °W | Updated 23 minutes ago

Overcast
Overcast
25 °F
Feels Like 15 °F
N
10
Wind Variable Wind from SE
Gusts 0.0 mph

Today
High -- | Low -- °F
--% Chance of Precip.
Yesterday
High -- | Low -- °F
Precip. -- in
Pressure 30.00 in
Visibility 10.0 miles
Clouds Mostly Cloudy 1300 ft
Overcast 5000 ft
Windchill 15 °F
Dew Point 19 °F
Humidity 80%
Rainfall in
Snow Depth Not available.
7:40 AM 5:54 PM
Waxing Crescent, 6% visible
METAR KHON 101755Z AUTO 14012KT 10SM BKN013 OVC050 M04/M08 A2994 RMK AO2 SLP157 T10441078 11044 21061 50003
Pressure 30.00 in
Visibility 10.0 miles
Clouds Mostly Cloudy 1300 ft
Overcast 5000 ft
Windchill 15 °F
Dew Point 19 °F
Humidity 80%
Rainfall in
Snow Depth Not available.
7:40 AM 5:54 PM
Waxing Crescent, 6% visible
METAR KHON 101755Z AUTO 14012KT 10SM BKN013 OVC050 M04/M08 A2994 RMK AO2 SLP157 T10441078 11044 21061 50003

10-Day Weather Forecast

Almanac

Astronomy

Feb. 10, 2016 Rise Set
Actual Time
Civil Twilight
Nautical Twilight
Astronomical Twilight
Moon
Length of Visible Light
Length of Day
Tomorrow will be .
, % of the Moon is Illuminated

Today's Extremes

State Highs State Lows

Community

WunderPhotos

Upload Photos

1,891,914 photos uploaded!

WunderBlog® & News

Nearby

Air Quality

  Air Quality AQ Index Pollutant
Not available.

Snow Depth

Station Depth Elevation

Earthquake Activity

City Distance Mag. Time & Date
Minimum magnitude displayed is 2.5.

Coastal Water Temperatures

Place Temperature

Stations

Nearby Weather Stations

Station Location Temp. Windchill Dew Point Humidity Wind Precip. Elev Updated Type
                   

Watches & Warnings

There are currently no watches in effect.